createdAt,value
2019-05-02T00:00:53.936Z,7.95
2019-05-02T00:01:53.992Z,7.87
2019-05-02T00:02:54.057Z,7.83
2019-05-02T00:03:54.112Z,7.85
2019-05-02T00:04:55.862Z,7.82
2019-05-02T00:05:54.237Z,7.90
2019-05-02T00:06:54.296Z,7.85
2019-05-02T00:07:58.524Z,7.88
2019-05-02T00:08:54.421Z,7.91
2019-05-02T00:09:54.481Z,7.82
2019-05-02T00:10:54.637Z,7.87
2019-05-02T00:11:58.850Z,7.88
2019-05-02T00:12:54.668Z,7.88
2019-05-02T00:13:54.731Z,7.85
2019-05-02T00:14:56.606Z,7.80
2019-05-02T00:15:54.857Z,7.82
2019-05-02T00:16:54.942Z,7.79
2019-05-02T00:17:56.861Z,7.75
2019-05-02T00:18:55.033Z,7.72
2019-05-02T00:19:55.098Z,7.72
2019-05-02T00:20:57.086Z,7.70
2019-05-02T00:21:55.217Z,7.69
2019-05-02T00:22:55.281Z,7.69
2019-05-02T00:23:59.221Z,7.70
2019-05-02T00:24:55.401Z,7.69
2019-05-02T00:25:55.468Z,7.75
2019-05-02T00:26:56.089Z,7.58
2019-05-02T00:27:55.585Z,7.54
2019-05-02T00:28:55.651Z,7.57
2019-05-02T00:29:58.834Z,7.61
2019-05-02T00:30:55.778Z,7.66
2019-05-02T00:31:55.838Z,7.60
2019-05-02T00:32:58.180Z,7.56
2019-05-02T00:33:55.953Z,7.53
2019-05-02T00:34:56.013Z,7.56
2019-05-02T00:35:56.091Z,7.60
2019-05-02T00:36:56.138Z,7.53
2019-05-02T00:37:57.332Z,7.48
2019-05-02T00:38:56.262Z,7.42
2019-05-02T00:39:56.322Z,7.43
2019-05-02T00:40:57.372Z,7.47
2019-05-02T00:41:56.450Z,7.39
2019-05-02T00:42:58.227Z,7.31
2019-05-02T00:43:56.566Z,7.36
2019-05-02T00:44:56.629Z,7.32
2019-05-02T00:45:59.821Z,7.36
2019-05-02T00:46:56.758Z,7.35
2019-05-02T00:47:56.810Z,7.36
2019-05-02T00:48:59.842Z,7.32
2019-05-02T00:49:56.934Z,7.33
2019-05-02T00:50:57.003Z,7.36
2019-05-02T00:52:01.377Z,7.32
2019-05-02T00:52:57.118Z,7.35
2019-05-02T00:53:57.181Z,7.38
2019-05-02T00:54:58.665Z,7.31
2019-05-02T00:55:57.391Z,7.36
2019-05-02T00:56:57.363Z,7.33
2019-05-02T00:57:57.427Z,7.36
2019-05-02T00:58:57.485Z,7.39
2019-05-02T00:59:57.549Z,7.20
2019-05-02T01:00:57.614Z,7.24
2019-05-02T01:02:00.069Z,7.20
2019-05-02T01:02:57.726Z,7.31
2019-05-02T01:03:57.786Z,7.18
2019-05-02T01:04:59.285Z,7.15
2019-05-02T01:05:57.911Z,7.24
2019-05-02T01:06:58.010Z,7.20
2019-05-02T01:08:01.042Z,7.23
2019-05-02T01:08:58.096Z,7.20
2019-05-02T01:09:58.155Z,7.10
2019-05-02T01:10:58.215Z,7.14
2019-05-02T01:12:03.073Z,7.18
2019-05-02T01:12:58.340Z,7.18
2019-05-02T01:13:58.399Z,7.17
2019-05-02T01:14:58.459Z,7.14
2019-05-02T01:15:58.524Z,7.13
2019-05-02T01:16:58.583Z,7.03
2019-05-02T01:18:01.152Z,7.03
2019-05-02T01:18:58.703Z,7.03
2019-05-02T01:19:58.772Z,7.00
2019-05-02T01:21:02.892Z,7.10
2019-05-02T01:21:58.887Z,7.06
2019-05-02T01:22:58.959Z,6.96
2019-05-02T01:24:02.959Z,6.92
2019-05-02T01:24:59.071Z,7.00
2019-05-02T01:25:59.133Z,6.97
2019-05-02T01:26:59.867Z,6.93
2019-05-02T01:27:59.631Z,6.97
2019-05-02T01:28:59.316Z,6.96
2019-05-02T01:30:01.402Z,7.00
2019-05-02T01:30:59.439Z,6.99
2019-05-02T01:31:59.498Z,6.96
2019-05-02T01:33:01.403Z,7.00
2019-05-02T01:33:59.717Z,7.00
2019-05-02T01:34:59.681Z,6.96
2019-05-02T01:36:01.642Z,6.99
2019-05-02T01:36:59.801Z,6.95
2019-05-02T01:37:59.865Z,7.00
2019-05-02T01:39:02.948Z,7.03
2019-05-02T01:39:59.993Z,7.00
2019-05-02T01:41:00.046Z,7.02
2019-05-02T01:42:04.016Z,7.03
2019-05-02T01:43:00.172Z,6.96
2019-05-02T01:44:01.603Z,7.03
2019-05-02T01:45:00.289Z,6.97
2019-05-02T01:46:00.349Z,6.96
2019-05-02T01:47:00.414Z,6.97
2019-05-02T01:48:00.482Z,6.99
2019-05-02T01:49:00.542Z,6.93
2019-05-02T01:50:00.602Z,6.97
2019-05-02T01:51:04.643Z,6.97
2019-05-02T01:52:00.718Z,7.00
2019-05-02T01:53:00.777Z,6.93
2019-05-02T01:54:05.105Z,6.96
2019-05-02T01:55:00.906Z,6.88
2019-05-02T01:56:00.962Z,6.85
2019-05-02T01:57:04.049Z,6.89
2019-05-02T01:58:01.081Z,6.93
2019-05-02T01:59:01.189Z,6.92
2019-05-02T02:00:04.232Z,6.88
2019-05-02T02:01:01.262Z,6.89
2019-05-02T02:02:01.328Z,6.82
2019-05-02T02:03:04.124Z,6.87
2019-05-02T02:04:01.458Z,6.85
2019-05-02T02:05:01.521Z,6.85
2019-05-02T02:06:02.890Z,6.87
2019-05-02T02:07:01.630Z,6.87
2019-05-02T02:08:01.691Z,6.85
2019-05-02T02:09:03.306Z,6.85
2019-05-02T02:10:01.825Z,6.84
2019-05-02T02:11:01.879Z,6.87
2019-05-02T02:12:05.033Z,6.88
2019-05-02T02:13:04.831Z,6.85
2019-05-02T02:14:02.068Z,6.88
2019-05-02T02:15:02.124Z,6.87
2019-05-02T02:16:04.486Z,6.82
2019-05-02T02:17:02.243Z,6.87
2019-05-02T02:18:02.299Z,6.81
2019-05-02T02:19:04.082Z,6.85
2019-05-02T02:20:02.418Z,6.84
2019-05-02T02:21:02.486Z,6.85
2019-05-02T02:22:04.291Z,6.82
2019-05-02T02:23:02.602Z,6.87
2019-05-02T02:24:02.671Z,6.87
2019-05-02T02:25:02.959Z,6.82
2019-05-02T02:26:06.741Z,6.85
2019-05-02T02:27:02.849Z,6.85
2019-05-02T02:28:02.909Z,6.87
2019-05-02T02:29:07.347Z,6.95
2019-05-02T02:30:03.035Z,6.97
2019-05-02T02:31:04.848Z,6.95
2019-05-02T02:32:03.153Z,7.10
2019-05-02T02:33:07.489Z,7.14
2019-05-02T02:34:03.376Z,7.13
2019-05-02T02:35:09.505Z,7.15
2019-05-02T02:36:03.398Z,7.29
2019-05-02T02:37:05.564Z,7.33
2019-05-02T02:38:03.516Z,7.36
2019-05-02T02:39:07.014Z,7.31
2019-05-02T02:40:03.645Z,7.43
2019-05-02T02:41:06.588Z,7.48
2019-05-02T02:42:03.760Z,7.48
2019-05-02T02:43:12.444Z,7.58
2019-05-02T02:44:03.899Z,7.66
2019-05-02T02:45:03.955Z,7.70
2019-05-02T02:46:04.006Z,7.76
2019-05-02T02:47:04.064Z,7.83
2019-05-02T02:48:04.125Z,7.83
2019-05-02T02:49:04.198Z,7.90
2019-05-02T02:50:05.392Z,7.94
2019-05-02T02:51:04.309Z,7.97
2019-05-02T02:52:06.673Z,7.97
2019-05-02T02:53:04.429Z,8.05
2019-05-02T02:54:05.858Z,8.01
2019-05-02T02:55:04.559Z,8.15
2019-05-02T02:56:04.618Z,8.09
2019-05-02T02:57:04.673Z,8.08
2019-05-02T02:58:06.516Z,8.16
2019-05-02T02:59:04.803Z,8.16
2019-05-02T03:00:08.135Z,8.13
2019-05-02T03:01:04.931Z,8.26
2019-05-02T03:02:10.034Z,8.18
2019-05-02T03:03:05.043Z,8.23
2019-05-02T03:04:09.535Z,8.15
2019-05-02T03:05:05.160Z,8.16
2019-05-02T03:06:07.615Z,8.26
2019-05-02T03:07:05.285Z,8.13
2019-05-02T03:08:07.029Z,8.15
2019-05-02T03:09:05.419Z,8.24
2019-05-02T03:10:06.397Z,8.31
2019-05-02T03:11:05.529Z,8.33
2019-05-02T03:12:05.590Z,8.31
2019-05-02T03:13:05.649Z,8.31
2019-05-02T03:14:09.102Z,8.33
2019-05-02T03:15:05.783Z,8.34
2019-05-02T03:16:07.076Z,8.34
2019-05-02T03:17:05.901Z,8.44
2019-05-02T03:18:05.958Z,8.44
2019-05-02T03:19:06.028Z,8.42
2019-05-02T03:20:06.090Z,8.42
2019-05-02T03:21:06.142Z,8.44
2019-05-02T03:22:06.201Z,8.52
2019-05-02T03:23:06.263Z,8.45
2019-05-02T03:24:06.330Z,8.46
2019-05-02T03:25:06.391Z,8.46
2019-05-02T03:26:08.159Z,8.49
2019-05-02T03:27:06.514Z,8.45
2019-05-02T03:28:17.706Z,8.49
2019-05-02T03:29:06.640Z,8.53
2019-05-02T03:30:06.701Z,8.49
2019-05-02T03:31:21.974Z,8.51
2019-05-02T03:32:26.225Z,8.49
2019-05-02T03:33:11.156Z,8.58
2019-05-02T03:34:06.944Z,8.58
2019-05-02T03:35:07.019Z,8.52
2019-05-02T03:36:25.953Z,8.60
2019-05-02T03:37:10.135Z,8.60
2019-05-02T03:38:07.184Z,8.56
2019-05-02T03:39:14.861Z,8.66
2019-05-02T03:40:07.320Z,8.67
2019-05-02T03:41:13.299Z,8.66
2019-05-02T03:42:07.436Z,8.64
2019-05-02T03:43:07.493Z,8.60
2019-05-02T03:44:12.416Z,8.63
2019-05-02T03:45:07.620Z,8.63
2019-05-02T03:47:07.736Z,8.74
2019-05-02T03:48:07.800Z,8.67
2019-05-02T03:49:09.713Z,8.71
2019-05-02T03:50:09.177Z,8.71
2019-05-02T03:51:19.953Z,8.71
2019-05-02T03:52:08.040Z,8.70
2019-05-02T03:53:08.111Z,8.71
2019-05-02T03:54:10.421Z,8.73
2019-05-02T03:55:08.224Z,8.82
2019-05-02T03:56:12.026Z,8.73
2019-05-02T03:57:08.347Z,8.81
2019-05-02T03:58:14.043Z,8.78
2019-05-02T03:59:08.474Z,8.76
2019-05-02T04:00:13.570Z,8.78
2019-05-02T04:01:08.604Z,8.79
2019-05-02T04:02:14.058Z,8.84
2019-05-02T04:03:08.719Z,8.81
2019-05-02T04:04:14.229Z,8.82
2019-05-02T04:05:08.843Z,8.89
2019-05-02T04:06:14.077Z,8.92
2019-05-02T04:07:08.968Z,8.87
2019-05-02T04:08:19.778Z,8.85
2019-05-02T04:09:09.102Z,8.89
2019-05-02T04:10:13.354Z,8.85
2019-05-02T04:11:09.432Z,8.94
2019-05-02T04:12:18.702Z,8.87
2019-05-02T04:13:09.328Z,8.89
2019-05-02T04:14:17.494Z,8.92
2019-05-02T04:15:09.841Z,8.89
2019-05-02T04:16:15.267Z,9.00
2019-05-02T04:17:09.589Z,8.89
2019-05-02T04:18:15.566Z,8.97
2019-05-02T04:19:09.698Z,8.94
2019-05-02T04:20:12.460Z,8.88
2019-05-02T04:21:09.830Z,8.95
2019-05-02T04:22:11.940Z,9.00
2019-05-02T04:23:09.946Z,8.95
2019-05-02T04:24:14.982Z,8.97
2019-05-02T04:25:10.066Z,9.04
2019-05-02T04:26:12.865Z,9.03
2019-05-02T04:27:10.189Z,9.08
2019-05-02T04:28:12.247Z,9.00
2019-05-02T04:29:10.314Z,9.08
2019-05-02T04:30:13.616Z,9.08
2019-05-02T04:31:10.443Z,9.14
2019-05-02T04:32:12.295Z,9.11
2019-05-02T04:33:10.559Z,9.11
2019-05-02T04:34:15.143Z,9.03
2019-05-02T04:35:10.686Z,9.10
2019-05-02T04:36:15.159Z,9.03
2019-05-02T04:37:10.814Z,9.08
2019-05-02T04:38:20.280Z,9.06
2019-05-02T04:39:15.062Z,9.06
2019-05-02T04:40:12.391Z,9.08
2019-05-02T04:41:11.055Z,9.14
2019-05-02T04:42:18.620Z,9.18
2019-05-02T04:43:11.589Z,9.21
2019-05-02T04:44:11.239Z,9.11
2019-05-02T04:45:21.809Z,9.21
2019-05-02T04:46:18.115Z,9.19
2019-05-02T04:47:17.568Z,9.11
2019-05-02T04:48:11.491Z,9.14
2019-05-02T04:49:11.548Z,9.18
2019-05-02T04:50:18.129Z,9.14
2019-05-02T04:51:16.342Z,9.28
2019-05-02T04:52:16.618Z,9.19
2019-05-02T04:53:11.796Z,9.21
2019-05-02T04:54:21.404Z,9.31
2019-05-02T04:55:19.966Z,9.32
2019-05-02T04:56:11.977Z,9.37
2019-05-02T04:57:12.044Z,9.37
2019-05-02T04:58:24.348Z,9.34
2019-05-02T04:59:17.622Z,9.34
2019-05-02T05:00:12.289Z,9.41
2019-05-02T05:01:12.288Z,9.36
2019-05-02T05:02:12.363Z,9.51
2019-05-02T05:03:15.443Z,9.47
2019-05-02T05:04:12.469Z,9.50
2019-05-02T05:05:17.343Z,9.48
2019-05-02T05:06:12.663Z,9.48
2019-05-02T05:07:12.659Z,9.55
2019-05-02T05:08:17.592Z,9.51
2019-05-02T05:09:14.777Z,9.55
2019-05-02T05:10:12.837Z,9.51
2019-05-02T05:11:14.042Z,9.56
2019-05-02T05:12:12.967Z,9.55
2019-05-02T05:13:19.725Z,9.55
2019-05-02T05:14:13.084Z,9.51
2019-05-02T05:15:22.652Z,9.50
2019-05-02T05:16:15.621Z,9.55
2019-05-02T05:17:13.329Z,9.59
2019-05-02T05:18:14.636Z,9.62
2019-05-02T05:19:13.396Z,9.66
2019-05-02T05:20:15.644Z,9.69
2019-05-02T05:21:13.517Z,9.72
2019-05-02T05:22:13.586Z,9.72
2019-05-02T05:23:15.689Z,9.73
2019-05-02T05:24:13.700Z,9.72
2019-05-02T05:25:17.638Z,9.76
2019-05-02T05:26:13.830Z,9.69
2019-05-02T05:27:18.919Z,9.72
2019-05-02T05:28:13.956Z,9.83
2019-05-02T05:29:18.475Z,9.79
2019-05-02T05:30:15.874Z,9.80
2019-05-02T05:31:16.418Z,9.79
2019-05-02T05:32:14.217Z,9.76
2019-05-02T05:33:14.260Z,9.74
2019-05-02T05:34:14.320Z,9.86
2019-05-02T05:35:14.386Z,9.86
2019-05-02T05:36:14.447Z,9.84
2019-05-02T05:37:14.514Z,9.79
2019-05-02T05:38:14.573Z,9.80
2019-05-02T05:39:14.628Z,9.84
2019-05-02T05:40:14.693Z,9.89
2019-05-02T05:41:17.265Z,9.87
2019-05-02T05:42:14.825Z,9.91
2019-05-02T05:43:17.989Z,9.95
2019-05-02T05:44:14.936Z,9.86
2019-05-02T05:45:15.001Z,10.01
2019-05-02T05:46:17.674Z,9.99
2019-05-02T05:47:17.692Z,10.04
2019-05-02T05:48:15.185Z,10.12
2019-05-02T05:49:20.263Z,10.10
2019-05-02T05:50:17.506Z,10.12
2019-05-02T05:51:17.047Z,10.13
2019-05-02T05:52:15.441Z,10.17
2019-05-02T05:53:17.084Z,10.23
2019-05-02T05:54:15.560Z,10.33
2019-05-02T05:55:20.464Z,10.35
2019-05-02T05:56:17.854Z,10.33
2019-05-02T05:57:17.483Z,10.19
2019-05-02T05:58:18.471Z,10.33
2019-05-02T05:59:17.482Z,10.40
2019-05-02T06:00:22.661Z,10.34
2019-05-02T06:01:17.641Z,10.44
2019-05-02T06:02:18.189Z,10.54
2019-05-02T06:03:17.889Z,10.56
2019-05-02T06:04:19.470Z,10.53
2019-05-02T06:05:17.482Z,10.53
2019-05-02T06:06:22.390Z,10.51
2019-05-02T06:07:17.653Z,10.56
2019-05-02T06:08:18.334Z,10.54
2019-05-02T06:09:16.495Z,10.59
2019-05-02T06:10:16.552Z,10.72
2019-05-02T06:11:20.059Z,10.72
2019-05-02T06:12:16.687Z,10.81
2019-05-02T06:13:16.746Z,10.79
2019-05-02T06:14:19.956Z,10.75
2019-05-02T06:15:16.863Z,10.72
2019-05-02T06:16:16.922Z,10.69
2019-05-02T06:17:17.002Z,10.78
2019-05-02T06:18:17.055Z,10.71
2019-05-02T06:19:17.811Z,10.74
2019-05-02T06:20:17.176Z,10.72
2019-05-02T06:21:17.282Z,10.72
2019-05-02T06:22:24.151Z,10.81
2019-05-02T06:23:17.358Z,10.72
2019-05-02T06:24:17.426Z,10.71
2019-05-02T06:25:17.487Z,10.76
2019-05-02T06:26:17.547Z,10.76
2019-05-02T06:27:20.774Z,10.87
2019-05-02T06:28:17.683Z,10.84
2019-05-02T06:29:18.709Z,10.92
2019-05-02T06:30:17.795Z,10.86
2019-05-02T06:31:17.858Z,10.82
2019-05-02T06:32:19.387Z,10.78
2019-05-02T06:33:17.991Z,10.74
2019-05-02T06:34:18.051Z,10.78
2019-05-02T06:35:21.253Z,10.82
2019-05-02T06:36:18.171Z,10.79
2019-05-02T06:37:18.275Z,10.84
2019-05-02T06:38:21.591Z,10.92
2019-05-02T06:39:18.360Z,10.86
2019-05-02T06:40:18.421Z,10.89
2019-05-02T06:41:20.917Z,11.02
2019-05-02T06:42:18.554Z,11.04
2019-05-02T06:43:18.611Z,11.04
2019-05-02T06:44:23.788Z,11.07
2019-05-02T06:45:18.732Z,11.05
2019-05-02T06:46:21.685Z,11.08
2019-05-02T06:47:18.862Z,11.07
2019-05-02T06:48:19.142Z,11.19
2019-05-02T06:49:24.263Z,11.14
2019-05-02T06:50:19.051Z,11.30
2019-05-02T06:51:20.820Z,11.30
2019-05-02T06:52:19.216Z,11.19
2019-05-02T06:53:19.232Z,11.29
2019-05-02T06:54:22.832Z,11.30
2019-05-02T06:55:19.356Z,11.29
2019-05-02T06:56:19.417Z,11.33
2019-05-02T06:57:24.219Z,11.27
2019-05-02T06:58:19.564Z,11.37
2019-05-02T06:59:20.306Z,11.37
2019-05-02T07:00:19.669Z,11.36
2019-05-02T07:01:21.318Z,11.44
2019-05-02T07:02:19.801Z,11.62
2019-05-02T07:03:19.862Z,11.73
2019-05-02T07:04:22.901Z,11.91
2019-05-02T07:05:19.986Z,11.90
2019-05-02T07:06:20.123Z,11.94
2019-05-02T07:07:25.209Z,12.06
2019-05-02T07:08:20.227Z,12.02
2019-05-02T07:09:20.379Z,11.99
2019-05-02T07:10:25.284Z,12.00
2019-05-02T07:11:20.357Z,11.99
2019-05-02T07:12:20.425Z,12.09
2019-05-02T07:13:20.491Z,12.03
2019-05-02T07:14:23.376Z,12.20
2019-05-02T07:15:20.655Z,12.17
2019-05-02T07:16:36.809Z,12.27
2019-05-02T07:17:20.741Z,12.21
2019-05-02T07:18:20.802Z,12.03
2019-05-02T07:19:21.607Z,12.04
2019-05-02T07:20:20.921Z,12.10
2019-05-02T07:21:23.544Z,12.20
2019-05-02T07:22:21.064Z,12.18
2019-05-02T07:23:21.118Z,12.21
2019-05-02T07:24:25.234Z,12.13
2019-05-02T07:25:21.237Z,12.13
2019-05-02T07:26:23.209Z,12.04
2019-05-02T07:27:21.370Z,12.15
2019-05-02T07:28:23.832Z,12.17
2019-05-02T07:29:23.002Z,12.03
2019-05-02T07:30:21.551Z,12.17
2019-05-02T07:31:21.621Z,12.27
2019-05-02T07:32:24.804Z,12.27
2019-05-02T07:33:21.747Z,12.32
2019-05-02T07:34:21.805Z,12.28
2019-05-02T07:35:24.417Z,12.31
2019-05-02T07:36:21.927Z,12.22
2019-05-02T07:37:21.999Z,12.31
2019-05-02T07:38:25.723Z,12.45
2019-05-02T07:39:22.114Z,12.31
2019-05-02T07:40:22.175Z,12.32
2019-05-02T07:41:24.224Z,12.32
2019-05-02T07:42:22.318Z,12.37
2019-05-02T07:43:22.475Z,12.46
2019-05-02T07:44:22.433Z,12.32
2019-05-02T07:45:22.519Z,12.13
2019-05-02T07:46:22.555Z,12.06
2019-05-02T07:47:22.627Z,12.00
2019-05-02T07:48:22.692Z,12.02
2019-05-02T07:49:26.645Z,12.04
2019-05-02T07:50:22.808Z,12.13
2019-05-02T07:51:22.871Z,12.20
2019-05-02T07:52:22.945Z,12.32
2019-05-02T07:53:23.004Z,12.24
2019-05-02T07:54:24.856Z,12.32
2019-05-02T07:55:23.123Z,12.31
2019-05-02T07:56:23.187Z,12.29
2019-05-02T07:57:25.240Z,12.28
2019-05-02T07:58:23.409Z,12.36
2019-05-02T07:59:23.861Z,12.32
2019-05-02T08:00:23.436Z,12.40
2019-05-02T08:01:23.500Z,12.24
2019-05-02T08:02:25.074Z,12.20
2019-05-02T08:03:23.636Z,12.28
2019-05-02T08:04:23.700Z,12.25
2019-05-02T08:05:23.940Z,12.18
2019-05-02T08:06:34.612Z,12.12
2019-05-02T08:07:27.149Z,12.28
2019-05-02T08:08:25.124Z,12.15
2019-05-02T08:09:24.016Z,12.13
2019-05-02T08:10:24.120Z,12.13
2019-05-02T08:11:24.128Z,11.97
2019-05-02T08:12:24.194Z,11.95
2019-05-02T08:13:24.264Z,11.95
2019-05-02T08:14:24.320Z,11.94
2019-05-02T08:15:24.892Z,11.99
2019-05-02T08:16:27.328Z,12.03
2019-05-02T08:17:24.509Z,12.03
2019-05-02T08:18:25.100Z,12.21
2019-05-02T08:19:24.636Z,12.37
2019-05-02T08:20:24.698Z,12.22
2019-05-02T08:21:27.268Z,12.25
2019-05-02T08:22:24.821Z,12.40
2019-05-02T08:23:25.780Z,12.35
2019-05-02T08:24:24.956Z,12.36
2019-05-02T08:25:25.009Z,12.42
2019-05-02T08:26:25.072Z,12.47
2019-05-02T08:27:29.289Z,12.61
2019-05-02T08:28:25.425Z,12.60
2019-05-02T08:29:28.793Z,12.62
2019-05-02T08:30:25.325Z,12.73
2019-05-02T08:31:25.389Z,12.79
2019-05-02T08:32:25.452Z,12.95
2019-05-02T08:33:29.417Z,13.04
2019-05-02T08:34:25.616Z,12.91
2019-05-02T08:35:28.147Z,12.86
2019-05-02T08:36:25.702Z,12.83
2019-05-02T08:37:25.766Z,12.83
2019-05-02T08:38:25.836Z,12.75
2019-05-02T08:39:33.059Z,12.67
2019-05-02T08:40:25.954Z,12.75
2019-05-02T08:41:26.018Z,12.78
2019-05-02T08:42:27.842Z,13.00
2019-05-02T08:43:26.190Z,12.98
2019-05-02T08:44:26.205Z,13.09
2019-05-02T08:45:26.274Z,13.15
2019-05-02T08:46:26.334Z,13.16
2019-05-02T08:47:28.557Z,13.23
2019-05-02T08:48:26.467Z,13.27
2019-05-02T08:49:26.530Z,13.37
2019-05-02T08:50:27.082Z,13.20
2019-05-02T08:51:26.655Z,13.20
2019-05-02T08:52:26.718Z,12.85
2019-05-02T08:53:26.785Z,12.85
2019-05-02T08:54:27.941Z,12.90
2019-05-02T08:55:29.813Z,12.95
2019-05-02T08:56:26.965Z,13.05
2019-05-02T08:57:30.086Z,12.95
2019-05-02T08:58:27.104Z,13.11
2019-05-02T08:59:27.156Z,13.05
2019-05-02T09:00:27.219Z,13.00
2019-05-02T09:01:34.973Z,13.09
2019-05-02T09:02:27.550Z,13.18
2019-05-02T09:03:27.417Z,13.23
2019-05-02T09:04:29.065Z,13.20
2019-05-02T09:05:27.543Z,13.11
2019-05-02T09:06:27.600Z,13.16
2019-05-02T09:07:31.782Z,13.37
2019-05-02T09:08:27.740Z,13.42
2019-05-02T09:09:28.416Z,13.49
2019-05-02T09:10:27.851Z,13.63
2019-05-02T09:11:27.915Z,13.62
2019-05-02T09:12:27.980Z,13.35
2019-05-02T09:13:29.538Z,13.30
2019-05-02T09:14:28.112Z,13.33
2019-05-02T09:15:28.172Z,13.54
2019-05-02T09:16:29.265Z,13.47
2019-05-02T09:17:36.057Z,13.65
2019-05-02T09:18:35.260Z,13.72
2019-05-02T09:19:31.470Z,13.89
2019-05-02T09:20:28.488Z,14.00
2019-05-02T09:21:34.352Z,13.83
2019-05-02T09:22:28.617Z,14.03
2019-05-02T09:23:33.123Z,14.17
2019-05-02T09:24:28.756Z,14.17
2019-05-02T09:25:28.808Z,14.20
2019-05-02T09:26:36.037Z,14.25
2019-05-02T09:27:28.932Z,14.36
2019-05-02T09:28:28.996Z,14.37
2019-05-02T09:29:29.080Z,14.28
2019-05-02T09:30:29.133Z,14.41
2019-05-02T09:31:29.188Z,14.63
2019-05-02T09:32:29.254Z,14.86
2019-05-02T09:33:29.319Z,14.96
2019-05-02T09:34:29.388Z,15.07
2019-05-02T09:35:29.453Z,15.15
2019-05-02T09:36:29.509Z,15.39
2019-05-02T09:37:29.572Z,15.46
2019-05-02T09:38:29.637Z,15.43
2019-05-02T09:39:34.696Z,15.35
2019-05-02T09:40:31.813Z,15.35
2019-05-02T09:41:34.518Z,15.29
2019-05-02T09:42:29.897Z,15.14
2019-05-02T09:43:37.431Z,15.14
2019-05-02T09:44:30.032Z,15.39
2019-05-02T09:45:33.347Z,15.82
2019-05-02T09:46:32.316Z,15.90
2019-05-02T09:47:35.235Z,15.83
2019-05-02T09:48:31.944Z,15.90
2019-05-02T09:49:32.347Z,15.91
2019-05-02T09:50:32.207Z,16.02
2019-05-02T09:51:32.458Z,16.29
2019-05-02T09:52:32.194Z,16.16
2019-05-02T09:53:32.404Z,16.28
2019-05-02T09:54:32.250Z,16.17
2019-05-02T09:55:31.815Z,16.15
2019-05-02T09:56:32.528Z,16.33
2019-05-02T09:57:32.031Z,16.84
2019-05-02T09:58:32.072Z,17.05
2019-05-02T09:59:32.855Z,17.27
2019-05-02T10:00:32.279Z,17.27
2019-05-02T10:01:31.712Z,17.57
2019-05-02T10:02:32.540Z,17.57
2019-05-02T10:03:31.879Z,17.79
2019-05-02T10:04:32.597Z,17.82
2019-05-02T10:05:32.204Z,17.89
2019-05-02T10:06:33.949Z,17.97
2019-05-02T10:07:32.459Z,18.28
2019-05-02T10:08:32.189Z,18.38
2019-05-02T10:09:32.422Z,18.63
2019-05-02T10:10:32.397Z,18.93
2019-05-02T10:11:32.300Z,18.89
2019-05-02T10:12:32.134Z,18.56
2019-05-02T10:13:31.982Z,18.45
2019-05-02T10:14:33.047Z,18.10
2019-05-02T10:15:32.705Z,17.82
2019-05-02T10:16:32.139Z,17.34
2019-05-02T10:17:32.342Z,17.16
2019-05-02T10:18:32.925Z,17.23
2019-05-02T10:19:32.751Z,17.19
2019-05-02T10:20:36.229Z,17.05
2019-05-02T10:21:32.461Z,17.45
2019-05-02T10:22:39.209Z,17.85
2019-05-02T10:23:32.631Z,18.13
2019-05-02T10:24:32.663Z,18.03
2019-05-02T10:25:38.637Z,17.94
2019-05-02T10:26:33.024Z,17.97
2019-05-02T10:27:32.860Z,18.03
2019-05-02T10:28:32.927Z,17.90
2019-05-02T10:29:33.147Z,17.83
2019-05-02T10:30:35.827Z,17.57
2019-05-02T10:31:37.454Z,17.54
2019-05-02T10:32:33.190Z,17.44
2019-05-02T10:33:37.468Z,17.68
2019-05-02T10:34:33.340Z,17.97
2019-05-02T10:35:37.239Z,17.82
2019-05-02T10:36:33.455Z,18.03
2019-05-02T10:37:38.398Z,17.71
2019-05-02T10:38:33.592Z,17.39
2019-05-02T10:39:37.682Z,17.39
2019-05-02T10:40:33.728Z,17.16
2019-05-02T10:41:39.343Z,17.33
2019-05-02T10:42:33.860Z,17.39
2019-05-02T10:43:33.924Z,17.76
2019-05-02T10:44:36.547Z,18.00
2019-05-02T10:45:34.064Z,17.89
2019-05-02T10:46:37.712Z,18.10
2019-05-02T10:47:36.307Z,18.49
2019-05-02T10:48:34.255Z,18.44
2019-05-02T10:49:34.321Z,18.43
2019-05-02T10:50:34.425Z,18.35
2019-05-02T10:51:34.463Z,18.33
2019-05-02T10:52:34.521Z,18.34
2019-05-02T10:53:34.588Z,18.40
2019-05-02T10:54:37.451Z,18.55
2019-05-02T10:55:34.728Z,18.58
2019-05-02T10:56:34.792Z,18.62
2019-05-02T10:57:34.856Z,18.53
2019-05-02T10:58:35.802Z,18.53
2019-05-02T10:59:34.988Z,18.49
2019-05-02T11:00:35.064Z,18.52
2019-05-02T11:01:35.129Z,18.50
2019-05-02T11:02:35.189Z,18.55
2019-05-02T11:03:38.208Z,18.44
2019-05-02T11:04:35.317Z,18.40
2019-05-02T11:05:37.294Z,18.37
2019-05-02T11:06:37.188Z,18.33
2019-05-02T11:07:35.565Z,18.33
2019-05-02T11:08:36.902Z,18.35
2019-05-02T11:09:35.664Z,18.40
2019-05-02T11:10:35.727Z,18.33
2019-05-02T11:11:35.795Z,18.43
2019-05-02T11:12:44.510Z,18.45
2019-05-02T11:13:35.917Z,18.35
2019-05-02T11:14:35.986Z,18.22
2019-05-02T11:15:36.057Z,18.10
2019-05-02T11:16:36.126Z,17.95
2019-05-02T11:17:36.567Z,17.97
2019-05-02T11:18:41.876Z,18.10
2019-05-02T11:19:36.318Z,18.35
2019-05-02T11:20:36.391Z,18.70
2019-05-02T11:21:36.462Z,18.81
2019-05-02T11:22:36.514Z,19.09
2019-05-02T11:23:36.630Z,19.37
2019-05-02T11:24:36.658Z,19.55
2019-05-02T11:25:36.725Z,19.45
2019-05-02T11:26:36.789Z,19.51
2019-05-02T11:27:36.852Z,19.66
2019-05-02T11:28:36.917Z,19.67
2019-05-02T11:29:36.984Z,19.24
2019-05-02T11:30:37.054Z,19.16
2019-05-02T11:31:37.130Z,19.18
2019-05-02T11:32:37.183Z,19.29
2019-05-02T11:33:37.249Z,19.39
2019-05-02T11:34:37.315Z,19.39
2019-05-02T11:35:41.640Z,19.14
2019-05-02T11:36:37.455Z,18.93
2019-05-02T11:37:37.518Z,18.93
2019-05-02T11:38:51.939Z,19.09
2019-05-02T11:39:45.018Z,19.29
2019-05-02T11:40:37.727Z,19.34
2019-05-02T11:41:37.789Z,19.22
2019-05-02T11:42:37.855Z,18.77
2019-05-02T11:43:42.220Z,18.47
2019-05-02T11:44:37.985Z,18.50
2019-05-02T11:45:38.059Z,18.52
2019-05-02T11:46:42.981Z,18.66
2019-05-02T11:47:38.187Z,18.33
2019-05-02T11:48:38.250Z,18.25
2019-05-02T11:49:38.318Z,18.20
2019-05-02T11:50:38.395Z,18.49
2019-05-02T11:51:38.459Z,18.31
2019-05-02T11:52:38.524Z,18.37
2019-05-02T11:53:38.591Z,18.20
2019-05-02T11:54:39.175Z,18.01
2019-05-02T11:55:41.303Z,18.20
2019-05-02T11:56:41.179Z,18.35
2019-05-02T11:57:38.855Z,18.70
2019-05-02T11:58:40.803Z,18.88
2019-05-02T11:59:38.986Z,19.18
2019-05-02T12:00:39.674Z,19.37
2019-05-02T12:01:39.931Z,19.58
2019-05-02T12:02:39.183Z,19.62
2019-05-02T12:03:39.251Z,19.58
2019-05-02T12:04:39.319Z,19.66
2019-05-02T12:05:39.460Z,19.22
2019-05-02T12:06:39.459Z,19.22
2019-05-02T12:07:39.520Z,18.93
2019-05-02T12:08:45.004Z,18.73
2019-05-02T12:09:44.317Z,18.68
2019-05-02T12:10:39.731Z,18.86
2019-05-02T12:11:41.748Z,18.80
2019-05-02T12:12:39.852Z,18.96
2019-05-02T12:13:39.978Z,19.22
2019-05-02T12:14:41.822Z,19.11
2019-05-02T12:15:42.180Z,19.16
2019-05-02T12:16:40.128Z,19.19
2019-05-02T12:17:41.986Z,19.24
2019-05-02T12:18:41.911Z,19.33
2019-05-02T12:19:42.425Z,19.45
2019-05-02T12:20:42.332Z,19.79
2019-05-02T12:21:41.974Z,20.03
2019-05-02T12:22:41.963Z,20.09
2019-05-02T12:23:41.810Z,20.19
2019-05-02T12:24:41.837Z,20.21
2019-05-02T12:25:42.304Z,20.43
2019-05-02T12:26:41.930Z,20.32
2019-05-02T12:27:42.474Z,20.22
2019-05-02T12:28:42.784Z,20.19
2019-05-02T12:29:42.374Z,20.00
2019-05-02T12:30:41.936Z,20.07
2019-05-02T12:31:42.700Z,20.04
2019-05-02T12:32:42.779Z,20.19
2019-05-02T12:33:42.668Z,20.50
2019-05-02T12:34:42.075Z,20.59
2019-05-02T12:35:43.253Z,20.59
2019-05-02T12:36:42.699Z,20.60
2019-05-02T12:37:42.408Z,20.36
2019-05-02T12:38:42.045Z,20.25
2019-05-02T12:39:42.514Z,20.14
2019-05-02T12:40:42.312Z,20.26
2019-05-02T12:41:42.466Z,20.02
2019-05-02T12:42:41.998Z,19.92
2019-05-02T12:43:41.925Z,19.70
2019-05-02T12:44:42.628Z,19.76
2019-05-02T12:45:42.334Z,19.74
2019-05-02T12:46:42.256Z,19.82
2019-05-02T12:47:42.806Z,19.77
2019-05-02T12:48:42.357Z,19.84
2019-05-02T12:49:42.534Z,19.92
2019-05-02T12:50:42.409Z,19.85
2019-05-02T12:51:42.986Z,19.74
2019-05-02T12:52:43.007Z,19.54
2019-05-02T12:53:42.598Z,19.52
2019-05-02T12:54:42.662Z,19.41
2019-05-02T12:55:42.742Z,19.63
2019-05-02T12:56:42.805Z,19.84
2019-05-02T12:57:43.069Z,19.91
2019-05-02T12:58:42.935Z,19.82
2019-05-02T12:59:42.998Z,19.81
2019-05-02T13:00:43.286Z,19.84
2019-05-02T13:01:43.134Z,19.84
2019-05-02T13:02:43.198Z,19.96
2019-05-02T13:03:43.729Z,20.02
2019-05-02T13:04:43.334Z,19.95
2019-05-02T13:05:43.402Z,19.95